Eldorado Springs, CO

4:47 AM MDT on August 30, 2014 (GMT -0600)
Berthoud Pass | Change Station
CLOSE
Current Station
Airport
Location: Berthoud Pass,
Elevation: 12490 ft
Nearby Weather Stations

Elev 12490 ft 39.79 °N, 105.76 °W | Updated 12 minutes ago

Clear
Clear
36 °F
Feels Like 26 °F
N
15
Wind Variable Wind from West

Today
High -- | Low -- °F
--% Chance of Precip.
Yesterday
High -- | Low -- °F
Precip. -- in
6:27 AM 7:35 PM
Waxing Crescent, 21% visible
Pressure 30.56 in
Visibility 10.0 miles
Clouds Clear
Windchill 26 °F
Dew Point 36 °F
Humidity 100%
Rainfall 0.00 in
Snow Depth 1 in , 0 in
UV 0 out of 12
Pollen 10.40 out of 12
Air Quality Not available.
Flu Activity Not available.
METAR K0CO 301035Z AUTO 27013KT 10SM CLR 02/02 A3056 RMK AO2

More Conditions Fewer Conditions

Pressure 30.56 in
Visibility 10.0 miles
Clouds Clear
Windchill 26 °F
Dew Point 36 °F
Humidity 100%
Rainfall 0.00 in
Snow Depth 1 in , 0 in
UV 0 out of 12
Pollen 10.40 out of 12
Air Quality Not available.
Flu Activity Not available.
METAR K0CO 301035Z AUTO 27013KT 10SM CLR 02/02 A3056 RMK AO2

More Conditions Fewer Conditions

10-Day Weather Forecast

Almanac

Astronomy

Aug. 30, 2014 Rise Set
Actual Time 6:27 AM MDT 7:35 PM MDT
Civil Twilight 5:59 AM MDT 8:03 PM MDT
Nautical Twilight 5:25 AM MDT 8:36 PM MDT
Astronomical Twilight 4:51 AM MDT 9:11 PM MDT
Moon 11:16 AM MDT 10:11 PM MDT
Length of Visible Light 14h 04m
Length of Day
13h 08m
Tomorrow will be 2m 30s shorter.
Waxing Crescent, 21% of the Moon is Illuminated
Today
Waxing Crescent
Sep 2
First Quarter
Sep 8
Full
Sep 15
Last Quarter
Sep 24
New

Today's Extremes

State Highs State Lows

Community

WunderPhotos

Upload Photos

1,748,482 photos uploaded!

WunderBlogs® & News

By Dr. Jeff Masters
Director of Meteorology, Weather Underground
By Kari Strenfel
Meteorologist, Weather Underground
By Christopher C. Burt
Weather Historian, Weather Underground
August 30, 2014
August 29, 2014
August 29, 2014

Nearby

Air Quality

  Air Quality AQ Index Pollutant
Yesterday Good
OZONE
Yesterday Good
PM10
Saturday Good
OZONE
Saturday Good
PM2.5

Snow Depth

Station Depth Elevation
Niwot 1 in 9910 ft
University Camp 0 in 10300 ft
Copeland Lake 0 in 8600 ft
Wild Basin 1 in 9560 ft
Echo Lake 0 in 10600 ft

Earthquake Activity

City Distance Mag. Time & Date
No recent earthquake activity has been reported nearby.
Minimum magnitude displayed is 2.5.

Coastal Water Temperatures

Place Temperature
No Stations Reporting

Nearby Weather Stations